createdAt,value
2023-01-20T00:48:40.192Z,511.00
2023-01-20T00:49:40.181Z,508.00
2023-01-20T00:50:40.159Z,511.00
2023-01-20T00:51:40.156Z,510.00
2023-01-20T00:52:40.158Z,511.00
2023-01-20T00:53:40.137Z,510.00
2023-01-20T00:54:40.110Z,508.00
2023-01-20T00:55:40.105Z,511.00
2023-01-20T00:56:40.075Z,511.00
2023-01-20T00:57:40.068Z,508.00
2023-01-20T00:58:40.046Z,509.00
2023-01-20T00:59:40.021Z,509.00
2023-01-20T01:00:40.072Z,504.00
2023-01-20T01:01:40.259Z,509.00
2023-01-20T01:02:40.108Z,505.00
2023-01-20T01:03:39.983Z,507.00
2023-01-20T01:04:39.970Z,505.00
2023-01-20T01:05:39.953Z,505.00
2023-01-20T01:06:39.948Z,510.00
2023-01-20T01:07:39.937Z,504.00
2023-01-20T01:08:39.920Z,509.00
2023-01-20T01:09:39.913Z,512.00
2023-01-20T01:10:39.900Z,509.00
2023-01-20T01:11:39.877Z,512.00
2023-01-20T01:12:39.874Z,506.00
2023-01-20T01:13:39.870Z,511.00
2023-01-20T01:14:39.847Z,509.00
2023-01-20T01:15:39.844Z,509.00
2023-01-20T01:16:40.752Z,511.00
2023-01-20T01:17:39.821Z,510.00
2023-01-20T01:18:39.813Z,507.00
2023-01-20T01:19:39.799Z,508.00
2023-01-20T01:20:39.793Z,506.00
2023-01-20T01:21:39.785Z,501.00
2023-01-20T01:22:39.771Z,506.00
2023-01-20T01:23:39.826Z,510.00
2023-01-20T01:24:39.756Z,508.00
2023-01-20T01:25:39.748Z,504.00
2023-01-20T01:26:39.737Z,506.00
2023-01-20T01:27:39.721Z,510.00
2023-01-20T01:28:40.288Z,509.00
2023-01-20T01:29:39.706Z,507.00
2023-01-20T01:30:39.747Z,512.00
2023-01-20T01:31:39.775Z,507.00
2023-01-20T01:32:39.696Z,504.00
2023-01-20T01:33:39.698Z,503.00
2023-01-20T01:34:40.268Z,507.00
2023-01-20T01:52:39.512Z,504.00
2023-01-20T01:53:39.515Z,500.00
2023-01-20T01:54:39.506Z,509.00
2023-01-20T01:55:39.504Z,509.00
2023-01-20T01:56:39.494Z,512.00
2023-01-20T01:57:39.470Z,507.00
2023-01-20T01:58:39.468Z,504.00
2023-01-20T01:59:39.516Z,505.00
2023-01-20T02:00:39.463Z,505.00
2023-01-20T02:01:39.449Z,509.00
2023-01-20T02:02:39.478Z,510.00
2023-01-20T02:03:39.414Z,505.00
2023-01-20T02:04:39.402Z,508.00
2023-01-20T02:05:39.792Z,503.00
2023-01-20T02:06:39.383Z,505.00
2023-01-20T02:07:39.372Z,507.00
2023-01-20T02:08:39.353Z,504.00
2023-01-20T02:09:39.349Z,503.00
2023-01-20T02:10:39.341Z,505.00
2023-01-20T02:11:39.327Z,505.00
2023-01-20T02:12:39.301Z,504.00
2023-01-20T02:13:39.298Z,507.00
2023-01-20T02:14:39.274Z,509.00
2023-01-20T02:15:39.284Z,503.00
2023-01-20T02:16:39.349Z,510.00
2023-01-20T02:17:39.253Z,505.00
2023-01-20T02:18:39.258Z,510.00
2023-01-20T02:19:39.242Z,505.00
2023-01-20T02:20:39.243Z,506.00
2023-01-20T02:21:39.238Z,508.00
2023-01-20T02:22:39.249Z,505.00
2023-01-20T02:23:39.238Z,508.00
2023-01-20T02:24:39.301Z,506.00
2023-01-20T02:25:39.210Z,503.00
2023-01-20T02:26:39.236Z,503.00
2023-01-20T02:27:39.191Z,505.00
2023-01-20T02:28:39.228Z,501.00
2023-01-20T02:29:39.177Z,503.00
2023-01-20T02:30:39.205Z,500.00
2023-01-20T02:31:39.276Z,504.00
2023-01-20T02:32:39.185Z,511.00
2023-01-20T02:33:39.121Z,507.00
2023-01-20T02:34:39.121Z,507.00
2023-01-20T02:35:39.120Z,508.00
2023-01-20T02:36:39.098Z,508.00
2023-01-20T02:37:39.077Z,505.00
2023-01-20T02:38:39.077Z,504.00
2023-01-20T02:39:39.058Z,505.00
2023-01-20T02:40:39.117Z,507.00
2023-01-20T02:41:39.042Z,503.00
2023-01-20T02:42:39.012Z,504.00
2023-01-20T02:43:38.987Z,504.00
2023-01-20T02:44:38.964Z,504.00
2023-01-20T02:45:38.981Z,505.00
2023-01-20T02:46:39.784Z,505.00
2023-01-20T02:47:38.895Z,507.00
2023-01-20T02:48:38.881Z,503.00
2023-01-20T02:49:38.864Z,506.00
2023-01-20T02:50:38.822Z,504.00
2023-01-20T02:51:38.788Z,505.00
2023-01-20T02:52:38.773Z,509.00
2023-01-20T02:53:38.737Z,504.00
2023-01-20T02:54:38.713Z,503.00
2023-01-20T02:55:38.670Z,504.00
2023-01-20T02:56:38.629Z,500.00
2023-01-20T02:57:38.585Z,505.00
2023-01-20T02:58:38.633Z,506.00
2023-01-20T02:59:38.524Z,504.00
2023-01-20T03:00:38.488Z,507.00
2023-01-20T03:01:38.563Z,509.00
2023-01-20T03:02:38.405Z,509.00
2023-01-20T03:03:38.389Z,501.00
2023-01-20T03:04:38.317Z,506.00
2023-01-20T03:05:38.324Z,503.00
2023-01-20T03:06:38.259Z,503.00
2023-01-20T03:07:38.200Z,503.00
2023-01-20T03:08:38.160Z,502.00
2023-01-20T03:09:38.125Z,504.00
2023-01-20T03:10:38.088Z,501.00
2023-01-20T03:11:38.051Z,508.00
2023-01-20T03:21:37.682Z,506.00
2023-01-20T03:22:37.623Z,502.00
2023-01-20T03:23:37.652Z,505.00
2023-01-20T03:24:38.296Z,504.00
2023-01-20T03:25:37.520Z,506.00
2023-01-20T03:26:37.482Z,504.00
2023-01-20T03:27:37.452Z,506.00
2023-01-20T03:28:37.419Z,502.00
2023-01-20T03:29:38.296Z,504.00
2023-01-20T03:30:37.447Z,504.00
2023-01-20T03:31:37.416Z,501.00
2023-01-20T03:32:37.257Z,504.00
2023-01-20T03:33:37.230Z,504.00
2023-01-20T03:34:37.313Z,504.00
2023-01-20T03:35:37.160Z,504.00
2023-01-20T03:36:37.122Z,502.00
2023-01-20T03:37:37.114Z,505.00
2023-01-20T03:38:37.064Z,507.00
2023-01-20T03:39:37.029Z,502.00
2023-01-20T03:40:36.978Z,505.00
2023-01-20T03:41:36.954Z,506.00
2023-01-20T03:42:37.000Z,501.00
2023-01-20T03:43:36.887Z,505.00
2023-01-20T03:44:36.848Z,512.00
2023-01-20T03:45:36.944Z,507.00
2023-01-20T03:46:36.770Z,506.00
2023-01-20T03:47:36.741Z,508.00
2023-01-20T03:48:36.693Z,511.00
2023-01-20T03:49:36.664Z,509.00
2023-01-20T03:50:36.645Z,500.00
2023-01-20T03:51:36.586Z,509.00
2023-01-20T03:52:48.011Z,507.00
2023-01-20T03:53:37.518Z,508.00
2023-01-20T03:54:36.533Z,508.00
2023-01-20T03:55:36.393Z,506.00
2023-01-20T03:56:36.369Z,507.00
2023-01-20T03:57:36.301Z,506.00
2023-01-20T03:58:36.261Z,507.00
2023-01-20T03:59:36.208Z,509.00
2023-01-20T04:00:36.234Z,505.00
2023-01-20T04:01:36.192Z,507.00
2023-01-20T04:02:36.075Z,508.00
2023-01-20T04:03:36.095Z,507.00
2023-01-20T04:04:36.325Z,505.00
2023-01-20T04:05:35.942Z,503.00
2023-01-20T04:06:35.924Z,505.00
2023-01-20T04:07:35.852Z,503.00
2023-01-20T04:08:35.798Z,504.00
2023-01-20T04:09:35.768Z,508.00
2023-01-20T04:10:35.783Z,509.00
2023-01-20T04:11:35.694Z,509.00
2023-01-20T04:12:35.636Z,508.00
2023-01-20T04:13:35.597Z,506.00
2023-01-20T04:14:35.554Z,508.00
2023-01-20T04:15:36.361Z,508.00
2023-01-20T04:17:35.427Z,508.00
2023-01-20T04:19:35.334Z,503.00
2023-01-20T04:20:35.297Z,506.00
2023-01-20T04:21:35.249Z,502.00
2023-01-20T04:22:35.256Z,503.00
2023-01-20T04:23:35.174Z,506.00
2023-01-20T04:24:35.116Z,506.00
2023-01-20T04:25:35.818Z,505.00
2023-01-20T04:26:35.113Z,503.00
2023-01-20T04:27:34.984Z,505.00
2023-01-20T04:28:34.948Z,505.00
2023-01-20T04:29:34.912Z,509.00
2023-01-20T04:30:34.905Z,506.00
2023-01-20T04:31:34.905Z,509.00
2023-01-20T04:32:34.842Z,505.00
2023-01-20T04:33:34.727Z,502.00
2023-01-20T04:34:34.676Z,506.00
2023-01-20T04:35:34.643Z,506.00
2023-01-20T04:36:34.603Z,506.00
2023-01-20T04:37:34.840Z,506.00
2023-01-20T04:38:34.512Z,507.00
2023-01-20T04:39:34.485Z,505.00
2023-01-20T04:40:34.453Z,506.00
2023-01-20T04:41:34.413Z,500.00
2023-01-20T04:42:34.363Z,505.00
2023-01-20T04:43:34.326Z,504.00
2023-01-20T04:44:34.831Z,504.00
2023-01-20T04:45:34.248Z,505.00
2023-01-20T04:46:36.672Z,502.00
2023-01-20T04:47:34.159Z,506.00
2023-01-20T04:48:34.101Z,509.00
2023-01-20T04:49:34.054Z,506.00
2023-01-20T04:50:34.012Z,506.00
2023-01-20T04:51:34.045Z,506.00
2023-01-20T04:52:33.937Z,503.00
2023-01-20T04:53:33.891Z,507.00
2023-01-20T04:54:33.859Z,501.00
2023-01-20T06:30:29.936Z,503.00
2023-01-20T06:35:29.690Z,507.00
2023-01-20T06:36:29.676Z,505.00
2023-01-20T06:37:29.602Z,507.00
2023-01-20T06:38:29.557Z,503.00
2023-01-20T06:39:29.536Z,502.00
2023-01-20T06:40:29.470Z,506.00
2023-01-20T06:42:29.372Z,507.00
2023-01-20T06:43:29.340Z,507.00
2023-01-20T06:44:29.283Z,508.00
2023-01-20T06:45:29.232Z,511.00
2023-01-20T06:46:29.299Z,508.00
2023-01-20T06:47:29.137Z,510.00
2023-01-20T06:48:29.096Z,510.00
2023-01-20T06:49:29.062Z,509.00
2023-01-20T06:50:29.020Z,506.00
2023-01-20T06:51:28.997Z,510.00
2023-01-20T06:52:28.931Z,510.00
2023-01-20T06:53:28.929Z,508.00
2023-01-20T06:54:28.851Z,507.00
2023-01-20T06:55:28.852Z,504.00
2023-01-20T06:56:28.756Z,510.00
2023-01-20T06:57:28.702Z,507.00
2023-01-20T06:58:28.653Z,508.00
2023-01-20T06:59:28.619Z,509.00
2023-01-20T07:00:29.652Z,509.00
2023-01-20T07:01:28.615Z,510.00
2023-01-20T07:02:29.371Z,509.00
2023-01-20T07:03:28.405Z,510.00
2023-01-20T07:04:28.375Z,509.00
2023-01-20T07:05:28.315Z,508.00
2023-01-20T07:06:28.293Z,511.00
2023-01-20T07:07:28.226Z,507.00
2023-01-20T07:08:28.179Z,506.00
2023-01-20T07:09:28.143Z,511.00
2023-01-20T07:10:28.117Z,513.00
2023-01-20T07:11:28.031Z,512.00
2023-01-20T07:12:27.991Z,513.00
2023-01-20T07:13:27.949Z,515.00
2023-01-20T07:14:27.909Z,517.00
2023-01-20T07:15:27.918Z,513.00
2023-01-20T07:16:27.866Z,511.00
2023-01-20T07:17:27.829Z,511.00
2023-01-20T07:18:27.716Z,511.00
2023-01-20T07:19:27.686Z,509.00
2023-01-20T07:20:27.629Z,514.00
2023-01-20T07:21:27.576Z,516.00
2023-01-20T07:22:27.529Z,518.00
2023-01-20T07:23:27.481Z,517.00
2023-01-20T07:24:27.444Z,512.00
2023-01-20T07:25:27.384Z,512.00
2023-01-20T07:26:27.894Z,514.00
2023-01-20T07:27:27.819Z,513.00
2023-01-20T07:29:27.237Z,538.00
2023-01-20T07:30:27.154Z,541.00
2023-01-20T07:31:27.857Z,539.00
2023-01-20T07:32:26.983Z,540.00
2023-01-20T07:33:26.921Z,542.00
2023-01-20T07:34:26.899Z,549.00
2023-01-20T07:35:26.867Z,554.00
2023-01-20T07:36:26.819Z,548.00
2023-01-20T07:37:26.826Z,553.00
2023-01-20T07:38:26.836Z,556.00
2023-01-20T07:39:26.888Z,558.00
2023-01-20T07:40:26.826Z,562.00
2023-01-20T07:41:26.842Z,561.00
2023-01-20T07:42:26.756Z,562.00
2023-01-20T07:43:26.699Z,563.00
2023-01-20T07:44:26.648Z,566.00
2023-01-20T07:45:26.597Z,570.00
2023-01-20T07:46:26.509Z,579.00
2023-01-20T07:47:26.441Z,577.00
2023-01-20T08:01:26.154Z,594.00
2023-01-20T08:02:26.033Z,595.00
2023-01-20T08:03:27.329Z,595.00
2023-01-20T08:04:26.977Z,609.00
2023-01-20T08:05:25.984Z,600.00
2023-01-20T08:06:25.978Z,595.00
2023-01-20T08:07:25.959Z,596.00
2023-01-20T08:08:27.915Z,596.00
2023-01-20T08:09:25.922Z,605.00
2023-01-20T08:10:25.921Z,602.00
2023-01-20T08:11:25.880Z,607.00
2023-01-20T08:12:25.858Z,607.00
2023-01-20T08:13:25.829Z,596.00
2023-01-20T08:14:25.820Z,601.00
2023-01-20T08:15:25.794Z,601.00
2023-01-20T08:16:25.804Z,602.00
2023-01-20T08:17:25.740Z,606.00
2023-01-20T08:18:25.725Z,607.00
2023-01-20T08:19:25.700Z,602.00
2023-01-20T08:20:25.689Z,435.00
2023-01-20T08:21:25.675Z,400.00
2023-01-20T08:22:25.659Z,488.00
2023-01-20T08:23:25.665Z,557.00
2023-01-20T08:24:25.710Z,604.00
2023-01-20T08:25:25.692Z,613.00
2023-01-20T08:26:25.704Z,625.00
2023-01-20T08:27:25.695Z,638.00
2023-01-20T08:28:25.921Z,629.00
2023-01-20T08:29:25.664Z,626.00
2023-01-20T08:30:25.735Z,610.00
2023-01-20T08:31:26.624Z,611.00
2023-01-20T08:32:25.561Z,618.00
2023-01-20T08:33:25.512Z,613.00
2023-01-20T08:34:25.524Z,609.00
2023-01-20T08:36:25.921Z,611.00
2023-01-20T08:52:25.549Z,645.00
2023-01-20T08:53:25.504Z,643.00
2023-01-20T08:54:25.523Z,639.00
2023-01-20T08:55:25.543Z,638.00
2023-01-20T08:56:25.554Z,637.00
2023-01-20T08:57:25.566Z,638.00
2023-01-20T08:58:25.932Z,649.00
2023-01-20T08:59:26.418Z,646.00
2023-01-20T09:00:25.584Z,644.00
2023-01-20T09:01:25.644Z,644.00
2023-01-20T09:02:25.587Z,644.00
2023-01-20T09:03:25.560Z,646.00
2023-01-20T09:04:25.625Z,649.00
2023-01-20T09:05:25.557Z,645.00
2023-01-20T09:06:25.548Z,650.00
2023-01-20T09:07:25.579Z,645.00
2023-01-20T09:08:25.585Z,649.00
2023-01-20T09:09:25.593Z,652.00
2023-01-20T09:10:25.600Z,651.00
2023-01-20T09:11:25.614Z,640.00
2023-01-20T09:12:25.603Z,645.00
2023-01-20T09:13:25.629Z,639.00
2023-01-20T09:14:25.614Z,646.00
2023-01-20T09:15:25.705Z,641.00
2023-01-20T09:16:25.574Z,641.00
2023-01-20T09:17:25.587Z,608.00
2023-01-20T09:18:25.580Z,609.00
2023-01-20T09:19:25.585Z,631.00
2023-01-20T09:20:25.606Z,619.00
2023-01-20T09:21:26.435Z,625.00
2023-01-20T09:22:25.625Z,621.00
2023-01-20T09:23:25.617Z,637.00
2023-01-20T09:24:25.617Z,594.00
2023-01-20T09:25:25.607Z,491.00
2023-01-20T09:26:35.713Z,553.00
2023-01-20T09:27:26.539Z,555.00
2023-01-20T09:28:26.428Z,564.00
2023-01-20T09:29:26.021Z,591.00
2023-01-20T09:30:25.927Z,613.00
2023-01-20T10:40:26.476Z,646.00
2023-01-20T13:00:25.539Z,612.00
2023-01-20T13:03:25.571Z,617.00
2023-01-20T13:04:25.510Z,616.00
2023-01-20T13:05:26.024Z,617.00
2023-01-20T13:06:25.636Z,614.00
2023-01-20T13:07:25.512Z,616.00
2023-01-20T13:08:25.531Z,617.00
2023-01-20T13:09:25.535Z,616.00
2023-01-20T13:10:25.536Z,614.00
2023-01-20T13:11:25.536Z,610.00
2023-01-20T13:12:25.536Z,611.00
2023-01-20T13:13:25.551Z,614.00
2023-01-20T13:14:25.568Z,610.00
2023-01-20T13:15:25.566Z,611.00
2023-01-20T13:16:25.616Z,609.00
2023-01-20T13:17:25.600Z,608.00
2023-01-20T13:18:25.680Z,610.00
2023-01-20T13:19:25.650Z,607.00
2023-01-20T13:20:25.725Z,606.00
2023-01-20T13:21:25.648Z,608.00
2023-01-20T13:22:25.664Z,605.00
2023-01-20T13:23:25.647Z,607.00
2023-01-20T13:24:25.751Z,603.00
2023-01-20T13:25:25.707Z,605.00
2023-01-20T13:26:27.561Z,605.00
2023-01-20T13:27:25.681Z,600.00
2023-01-20T13:28:25.688Z,608.00
2023-01-20T13:29:25.683Z,604.00
2023-01-20T13:30:25.688Z,603.00
2023-01-20T13:31:25.766Z,603.00
2023-01-20T13:32:25.657Z,605.00
2023-01-20T13:33:25.652Z,602.00
2023-01-20T13:34:25.667Z,604.00
2023-01-20T13:35:25.652Z,602.00
2023-01-20T13:36:25.656Z,604.00
2023-01-20T13:37:25.649Z,603.00
2023-01-20T13:38:25.649Z,602.00
2023-01-20T13:39:25.733Z,596.00
2023-01-20T13:40:25.641Z,600.00
2023-01-20T13:41:25.626Z,600.00
2023-01-20T13:42:25.600Z,603.00
2023-01-20T13:43:25.606Z,603.00
2023-01-20T13:44:26.533Z,597.00
2023-01-20T13:45:25.577Z,599.00
2023-01-20T13:46:25.560Z,602.00
2023-01-20T13:47:25.532Z,601.00
2023-01-20T13:48:25.527Z,598.00
2023-01-20T13:49:25.538Z,600.00
2023-01-20T13:50:25.551Z,598.00
2023-01-20T13:51:25.560Z,599.00
2023-01-20T13:52:25.565Z,599.00
2023-01-20T13:53:25.568Z,600.00
2023-01-20T13:54:25.575Z,596.00
2023-01-20T13:55:25.564Z,599.00
2023-01-20T13:56:25.562Z,599.00
2023-01-20T13:57:25.553Z,599.00
2023-01-20T13:58:25.560Z,601.00
2023-01-20T13:59:25.571Z,597.00
2023-01-20T14:00:25.602Z,600.00
2023-01-20T14:01:25.700Z,600.00
2023-01-20T14:02:28.558Z,594.00
2023-01-20T14:03:25.565Z,601.00
2023-01-20T14:04:25.507Z,601.00
2023-01-20T15:35:22.576Z,580.00
2023-01-20T15:36:22.566Z,581.00
2023-01-20T15:37:23.058Z,582.00
2023-01-20T15:38:22.597Z,581.00
2023-01-20T15:39:22.535Z,579.00
2023-01-20T15:40:22.591Z,581.00
2023-01-20T15:41:22.500Z,581.00
2023-01-20T15:42:22.479Z,579.00
2023-01-20T15:43:22.495Z,581.00
2023-01-20T15:44:22.465Z,580.00
2023-01-20T15:45:22.572Z,579.00
2023-01-20T15:46:23.078Z,584.00
2023-01-20T15:47:22.466Z,580.00
2023-01-20T15:48:22.455Z,581.00
2023-01-20T15:49:22.529Z,577.00
2023-01-20T15:50:23.116Z,580.00
2023-01-20T15:51:22.459Z,581.00
2023-01-20T19:28:19.053Z,571.00
2023-01-20T19:29:19.174Z,573.00
2023-01-20T19:30:19.011Z,575.00
2023-01-20T19:31:19.059Z,572.00
2023-01-20T19:32:18.957Z,575.00
2023-01-20T19:33:18.951Z,574.00
2023-01-20T19:34:18.934Z,571.00
2023-01-20T19:35:18.909Z,571.00
2023-01-20T19:36:18.891Z,568.00
2023-01-20T19:37:18.864Z,571.00
2023-01-20T19:38:19.149Z,575.00
2023-01-20T19:39:18.822Z,572.00
2023-01-20T19:40:19.020Z,572.00
2023-01-20T19:41:18.787Z,569.00
2023-01-20T19:42:18.779Z,570.00
2023-01-20T19:43:18.762Z,571.00
2023-01-20T19:44:18.738Z,573.00
2023-01-20T19:45:18.725Z,571.00
2023-01-20T19:46:18.819Z,574.00
2023-01-20T19:47:18.689Z,568.00
2023-01-20T19:48:18.667Z,574.00
2023-01-20T19:49:18.661Z,572.00
2023-01-20T19:50:19.052Z,572.00
2023-01-20T19:51:19.332Z,568.00
2023-01-20T19:52:18.601Z,569.00
2023-01-20T19:53:18.592Z,573.00
2023-01-20T19:54:18.568Z,572.00
2023-01-20T19:55:18.578Z,574.00
2023-01-20T19:56:18.529Z,566.00
2023-01-20T19:57:18.514Z,571.00
2023-01-20T19:58:18.502Z,566.00
2023-01-20T19:59:18.484Z,571.00
2023-01-20T20:00:18.480Z,572.00
2023-01-20T20:01:18.483Z,573.00
2023-01-20T20:02:18.463Z,573.00
2023-01-20T20:03:18.416Z,573.00
2023-01-20T20:04:18.415Z,573.00
2023-01-20T20:05:18.375Z,571.00
2023-01-20T20:06:18.453Z,572.00
2023-01-20T20:07:18.341Z,568.00
2023-01-20T20:08:18.331Z,571.00
2023-01-20T20:09:18.309Z,573.00
2023-01-20T20:10:18.808Z,566.00
2023-01-20T20:11:18.293Z,568.00
2023-01-20T20:12:18.289Z,570.00
2023-01-20T20:13:18.266Z,569.00
2023-01-20T20:14:18.240Z,569.00
2023-01-20T20:15:18.214Z,571.00
2023-01-20T20:16:18.244Z,570.00
2023-01-20T20:17:18.180Z,571.00
2023-01-20T20:18:18.155Z,570.00
2023-01-20T20:19:18.153Z,569.00
2023-01-20T20:20:18.434Z,568.00
2023-01-20T20:21:18.101Z,570.00
2023-01-20T20:22:18.067Z,574.00
2023-01-20T20:23:18.073Z,571.00
2023-01-20T20:24:18.047Z,568.00
2023-01-20T20:25:18.040Z,565.00
2023-01-20T20:26:18.021Z,567.00
2023-01-20T20:27:18.000Z,564.00
2023-01-20T20:28:17.966Z,569.00
2023-01-20T20:29:18.013Z,572.00
2023-01-20T20:30:18.111Z,564.00
2023-01-20T20:31:18.079Z,571.00
2023-01-20T20:32:17.886Z,566.00
2023-01-20T20:33:17.877Z,570.00
2023-01-20T20:34:17.842Z,571.00
2023-01-20T20:35:17.885Z,568.00
2023-01-20T20:36:17.807Z,567.00
2023-01-20T20:37:17.801Z,567.00
2023-01-20T20:38:17.796Z,563.00
2023-01-20T20:39:17.756Z,566.00
2023-01-20T20:40:17.950Z,571.00
2023-01-20T20:41:17.730Z,571.00
2023-01-20T20:42:17.705Z,564.00
2023-01-20T20:43:17.696Z,566.00
2023-01-20T20:44:17.676Z,564.00
2023-01-20T20:45:17.650Z,568.00
2023-01-20T20:46:17.682Z,568.00
2023-01-20T20:47:17.619Z,568.00
2023-01-20T20:48:17.610Z,569.00
2023-01-20T20:49:17.593Z,566.00
2023-01-20T20:50:17.982Z,566.00
2023-01-20T20:51:17.592Z,563.00
2023-01-20T20:52:17.590Z,568.00
2023-01-20T20:53:17.526Z,569.00
2023-01-20T20:54:17.500Z,567.00
2023-01-20T20:55:17.499Z,564.00
2023-01-20T20:56:17.492Z,566.00
2023-01-20T20:57:17.479Z,567.00
2023-01-20T20:58:17.474Z,566.00
2023-01-20T20:59:17.453Z,570.00
2023-01-20T21:00:17.546Z,574.00
2023-01-20T21:01:17.437Z,567.00
2023-01-20T21:02:17.405Z,567.00
2023-01-20T21:03:17.392Z,566.00
2023-01-20T21:04:17.365Z,568.00
2023-01-20T21:05:17.360Z,567.00
2023-01-20T21:06:17.333Z,566.00
2023-01-20T21:07:17.322Z,571.00
2023-01-20T21:08:17.300Z,563.00
2023-01-20T21:09:18.172Z,566.00
2023-01-20T21:10:17.589Z,565.00
2023-01-20T21:11:17.254Z,565.00
2023-01-20T21:12:17.246Z,566.00
2023-01-20T21:13:17.319Z,565.00
2023-01-20T21:14:17.212Z,566.00
2023-01-20T21:15:17.184Z,565.00
2023-01-20T21:16:17.308Z,565.00
2023-01-20T21:17:17.154Z,565.00
2023-01-20T21:18:17.143Z,564.00
2023-01-20T21:19:17.123Z,567.00
2023-01-20T21:20:17.490Z,561.00
2023-01-20T21:21:17.193Z,564.00
2023-01-20T21:22:17.137Z,563.00
2023-01-20T21:23:17.058Z,562.00
2023-01-20T21:24:17.043Z,564.00
2023-01-20T21:25:17.028Z,562.00
2023-01-20T21:26:17.006Z,562.00
2023-01-20T21:27:16.999Z,563.00
2023-01-20T21:28:16.981Z,563.00
2023-01-20T21:29:16.963Z,565.00
2023-01-20T21:30:17.284Z,563.00
2023-01-20T21:31:16.946Z,561.00
2023-01-20T21:32:16.918Z,565.00
2023-01-20T21:33:16.889Z,563.00
2023-01-20T21:34:16.877Z,565.00
2023-01-20T21:35:16.855Z,562.00
2023-01-20T21:36:16.849Z,560.00
2023-01-20T21:37:16.814Z,560.00
2023-01-20T21:38:16.809Z,561.00
2023-01-20T21:39:16.806Z,568.00
2023-01-20T21:40:17.196Z,564.00
2023-01-20T21:41:16.764Z,564.00
2023-01-20T21:42:16.802Z,565.00
2023-01-20T21:43:16.732Z,566.00
2023-01-20T21:44:16.714Z,564.00
2023-01-20T21:45:16.695Z,562.00
2023-01-20T21:46:16.731Z,562.00
2023-01-20T21:47:16.685Z,559.00
2023-01-20T21:48:16.661Z,561.00
2023-01-20T21:49:16.637Z,558.00
2023-01-20T21:50:16.757Z,563.00
2023-01-20T21:51:16.655Z,559.00
2023-01-20T21:52:16.583Z,562.00
2023-01-20T21:53:16.566Z,561.00
2023-01-20T21:54:16.554Z,563.00
2023-01-20T21:55:16.535Z,565.00
2023-01-20T21:56:16.510Z,562.00
2023-01-20T21:57:16.521Z,562.00
2023-01-20T21:58:16.499Z,565.00
2023-01-20T21:59:16.472Z,558.00
2023-01-20T22:00:16.640Z,563.00
2023-01-20T22:01:16.439Z,561.00
2023-01-20T22:02:16.461Z,558.00
2023-01-20T22:03:16.405Z,563.00
2023-01-20T22:04:16.393Z,561.00
2023-01-20T22:05:16.444Z,561.00
2023-01-20T22:06:16.370Z,557.00
2023-01-20T22:07:16.329Z,566.00
2023-01-20T22:08:16.311Z,562.00
2023-01-20T22:09:16.298Z,559.00
2023-01-20T22:10:16.541Z,557.00
2023-01-20T22:12:16.251Z,557.00
2023-01-20T22:13:16.244Z,560.00
2023-01-20T22:14:16.222Z,562.00
2023-01-20T22:15:16.203Z,561.00
2023-01-20T22:16:16.285Z,564.00
2023-01-20T22:17:16.190Z,562.00
2023-01-20T22:18:16.182Z,561.00
2023-01-20T22:19:16.265Z,561.00
2023-01-20T22:20:16.412Z,558.00
2023-01-20T22:21:16.125Z,559.00
2023-01-20T22:22:16.118Z,560.00
2023-01-20T22:23:16.151Z,560.00
2023-01-20T22:24:16.111Z,561.00
2023-01-20T22:25:16.095Z,562.00
2023-01-20T22:26:16.078Z,557.00
2023-01-20T22:27:16.060Z,560.00
2023-01-20T22:28:16.044Z,559.00
2023-01-20T22:29:16.034Z,553.00
2023-01-20T22:30:16.280Z,560.00
2023-01-20T22:31:16.039Z,558.00
2023-01-20T22:32:15.976Z,558.00
2023-01-20T22:33:15.966Z,559.00
2023-01-20T22:34:15.951Z,561.00
2023-01-20T22:35:16.714Z,560.00
2023-01-20T22:36:15.898Z,554.00
2023-01-20T22:37:15.880Z,560.00
2023-01-20T22:38:15.863Z,558.00
2023-01-20T22:39:15.849Z,557.00
2023-01-20T22:40:16.003Z,560.00
2023-01-20T22:41:15.871Z,557.00
2023-01-20T22:42:15.871Z,554.00
2023-01-20T22:43:15.762Z,557.00
2023-01-20T22:44:15.744Z,560.00
2023-01-20T22:45:15.729Z,555.00
2023-01-20T22:46:15.793Z,559.00
2023-01-20T22:47:15.701Z,556.00
2023-01-20T22:48:15.710Z,556.00
2023-01-20T22:49:15.686Z,558.00
2023-01-20T22:50:15.980Z,556.00
2023-01-20T22:51:15.784Z,560.00
2023-01-20T22:52:15.643Z,556.00
2023-01-20T22:53:15.622Z,556.00
2023-01-20T22:54:15.621Z,559.00
2023-01-20T22:55:15.596Z,558.00
2023-01-20T22:56:15.583Z,559.00
2023-01-20T22:57:15.564Z,558.00
2023-01-20T22:58:15.561Z,558.00
2023-01-20T22:59:15.572Z,557.00
2023-01-20T23:00:15.830Z,556.00
2023-01-20T23:06:16.203Z,556.00
2023-01-20T23:37:15.760Z,553.00
